sensor_id;sensor_type;location;lat;lon;timestamp;temperature;humidity
13572;DHT22;6857;53.484;10.216;2023-05-10T00:01:28;14.10;99.90
13572;DHT22;6857;53.484;10.216;2023-05-10T00:03:53;14.10;99.90
13572;DHT22;6857;53.484;10.216;2023-05-10T00:06:19;14.10;99.90
13572;DHT22;6857;53.484;10.216;2023-05-10T00:08:45;14.00;99.90
13572;DHT22;6857;53.484;10.216;2023-05-10T00:11:11;14.00;99.90
13572;DHT22;6857;53.484;10.216;2023-05-10T00:13:36;13.90;99.90
13572;DHT22;6857;53.484;10.216;2023-05-10T00:16:02;13.80;99.90
13572;DHT22;6857;53.484;10.216;2023-05-10T00:18:27;13.90;99.90
13572;DHT22;6857;53.484;10.216;2023-05-10T00:20:53;13.80;99.90
13572;DHT22;6857;53.484;10.216;2023-05-10T00:23:18;13.90;99.90
13572;DHT22;6857;53.484;10.216;2023-05-10T00:25:44;13.90;99.90
13572;DHT22;6857;53.484;10.216;2023-05-10T00:28:09;13.80;99.90
13572;DHT22;6857;53.484;10.216;2023-05-10T00:30:35;13.80;99.90
13572;DHT22;6857;53.484;10.216;2023-05-10T00:33:00;13.80;99.90
13572;DHT22;6857;53.484;10.216;2023-05-10T00:35:26;13.80;99.90
13572;DHT22;6857;53.484;10.216;2023-05-10T00:37:52;13.80;99.90
13572;DHT22;6857;53.484;10.216;2023-05-10T00:40:17;13.80;99.90
13572;DHT22;6857;53.484;10.216;2023-05-10T00:42:43;13.70;99.90
13572;DHT22;6857;53.484;10.216;2023-05-10T00:45:08;13.80;99.90
13572;DHT22;6857;53.484;10.216;2023-05-10T00:47:34;13.80;99.90
13572;DHT22;6857;53.484;10.216;2023-05-10T00:50:00;13.70;99.90
13572;DHT22;6857;53.484;10.216;2023-05-10T00:52:27;13.60;99.90
13572;DHT22;6857;53.484;10.216;2023-05-10T00:54:54;13.70;99.90
13572;DHT22;6857;53.484;10.216;2023-05-10T00:57:19;13.60;99.90
13572;DHT22;6857;53.484;10.216;2023-05-10T00:59:46;13.50;99.90
13572;DHT22;6857;53.484;10.216;2023-05-10T01:02:12;13.60;99.90
13572;DHT22;6857;53.484;10.216;2023-05-10T01:04:38;13.60;99.90
13572;DHT22;6857;53.484;10.216;2023-05-10T01:07:05;13.50;99.90
13572;DHT22;6857;53.484;10.216;2023-05-10T01:09:31;13.50;99.90
13572;DHT22;6857;53.484;10.216;2023-05-10T01:11:57;13.40;99.90
13572;DHT22;6857;53.484;10.216;2023-05-10T01:14:24;13.40;99.90
13572;DHT22;6857;53.484;10.216;2023-05-10T01:16:50;13.20;99.90
13572;DHT22;6857;53.484;10.216;2023-05-10T01:19:26;13.30;99.90
13572;DHT22;6857;53.484;10.216;2023-05-10T01:27:59;13.20;99.90
13572;DHT22;6857;53.484;10.216;2023-05-10T01:33:27;13.10;99.90
13572;DHT22;6857;53.484;10.216;2023-05-10T01:38:49;13.10;99.90
13572;DHT22;6857;53.484;10.216;2023-05-10T01:41:28;13.00;99.90
13572;DHT22;6857;53.484;10.216;2023-05-10T01:46:50;12.90;99.90
13572;DHT22;6857;53.484;10.216;2023-05-10T01:49:24;12.90;99.90
13572;DHT22;6857;53.484;10.216;2023-05-10T01:51:53;12.80;99.90
13572;DHT22;6857;53.484;10.216;2023-05-10T01:54:21;12.80;99.90
13572;DHT22;6857;53.484;10.216;2023-05-10T01:56:57;12.80;99.90
13572;DHT22;6857;53.484;10.216;2023-05-10T01:59:29;12.80;99.90
13572;DHT22;6857;53.484;10.216;2023-05-10T02:01:58;12.70;99.90
13572;DHT22;6857;53.484;10.216;2023-05-10T02:04:24;12.70;99.90
13572;DHT22;6857;53.484;10.216;2023-05-10T02:06:53;12.70;99.90
13572;DHT22;6857;53.484;10.216;2023-05-10T02:09:20;12.70;99.90
13572;DHT22;6857;53.484;10.216;2023-05-10T02:11:48;12.70;99.90
13572;DHT22;6857;53.484;10.216;2023-05-10T02:14:14;12.60;99.90
13572;DHT22;6857;53.484;10.216;2023-05-10T02:16:41;12.60;99.90
13572;DHT22;6857;53.484;10.216;2023-05-10T02:19:07;12.60;99.90
13572;DHT22;6857;53.484;10.216;2023-05-10T02:21:35;12.60;99.90
13572;DHT22;6857;53.484;10.216;2023-05-10T02:24:02;12.50;99.90
13572;DHT22;6857;53.484;10.216;2023-05-10T02:26:29;12.50;99.90
13572;DHT22;6857;53.484;10.216;2023-05-10T02:28:57;12.50;99.90
13572;DHT22;6857;53.484;10.216;2023-05-10T02:31:23;12.40;99.90
13572;DHT22;6857;53.484;10.216;2023-05-10T02:33:50;12.40;99.90
13572;DHT22;6857;53.484;10.216;2023-05-10T02:36:16;12.50;99.90
13572;DHT22;6857;53.484;10.216;2023-05-10T02:38:43;12.50;99.90
13572;DHT22;6857;53.484;10.216;2023-05-10T02:41:10;12.50;99.90
13572;DHT22;6857;53.484;10.216;2023-05-10T02:43:37;12.60;99.90
13572;DHT22;6857;53.484;10.216;2023-05-10T02:46:05;12.40;99.90
13572;DHT22;6857;53.484;10.216;2023-05-10T02:48:30;12.40;99.90
13572;DHT22;6857;53.484;10.216;2023-05-10T02:51:00;12.50;99.90
13572;DHT22;6857;53.484;10.216;2023-05-10T02:53:33;12.40;99.90
13572;DHT22;6857;53.484;10.216;2023-05-10T02:56:01;12.30;99.90
13572;DHT22;6857;53.484;10.216;2023-05-10T02:58:29;12.30;99.90
13572;DHT22;6857;53.484;10.216;2023-05-10T03:00:54;12.20;99.90
13572;DHT22;6857;53.484;10.216;2023-05-10T03:03:20;12.30;99.90
13572;DHT22;6857;53.484;10.216;2023-05-10T03:05:46;12.40;99.90
13572;DHT22;6857;53.484;10.216;2023-05-10T03:08:12;12.30;99.90
13572;DHT22;6857;53.484;10.216;2023-05-10T03:10:44;12.30;99.90
13572;DHT22;6857;53.484;10.216;2023-05-10T03:13:21;12.30;99.90
13572;DHT22;6857;53.484;10.216;2023-05-10T03:16:10;12.40;99.90
13572;DHT22;6857;53.484;10.216;2023-05-10T03:18:44;12.20;99.90
13572;DHT22;6857;53.484;10.216;2023-05-10T03:23:50;12.10;99.90
13572;DHT22;6857;53.484;10.216;2023-05-10T03:26:24;12.10;99.90
13572;DHT22;6857;53.484;10.216;2023-05-10T03:28:52;12.20;99.90
13572;DHT22;6857;53.484;10.216;2023-05-10T03:31:18;12.10;99.90
13572;DHT22;6857;53.484;10.216;2023-05-10T03:33:52;12.10;99.90
13572;DHT22;6857;53.484;10.216;2023-05-10T03:36:18;12.10;99.90
13572;DHT22;6857;53.484;10.216;2023-05-10T03:38:44;12.10;99.90
13572;DHT22;6857;53.484;10.216;2023-05-10T03:43:39;12.30;99.90
13572;DHT22;6857;53.484;10.216;2023-05-10T03:48:33;11.90;99.90
13572;DHT22;6857;53.484;10.216;2023-05-10T03:50:58;11.90;99.90
13572;DHT22;6857;53.484;10.216;2023-05-10T03:53:24;11.90;99.90
13572;DHT22;6857;53.484;10.216;2023-05-10T03:55:50;11.80;99.90
13572;DHT22;6857;53.484;10.216;2023-05-10T03:58:15;12.00;99.90
13572;DHT22;6857;53.484;10.216;2023-05-10T04:00:41;12.00;99.90
13572;DHT22;6857;53.484;10.216;2023-05-10T04:03:09;12.00;99.90
13572;DHT22;6857;53.484;10.216;2023-05-10T04:05:35;12.00;99.90
13572;DHT22;6857;53.484;10.216;2023-05-10T04:08:01;12.00;99.90
13572;DHT22;6857;53.484;10.216;2023-05-10T04:10:27;11.90;99.90
13572;DHT22;6857;53.484;10.216;2023-05-10T04:12:52;11.90;99.90
13572;DHT22;6857;53.484;10.216;2023-05-10T04:15:18;11.90;99.90
13572;DHT22;6857;53.484;10.216;2023-05-10T04:17:44;11.90;99.90
13572;DHT22;6857;53.484;10.216;2023-05-10T04:20:10;11.90;99.90
13572;DHT22;6857;53.484;10.216;2023-05-10T04:22:35;11.90;99.90
13572;DHT22;6857;53.484;10.216;2023-05-10T04:25:01;11.90;99.90
13572;DHT22;6857;53.484;10.216;2023-05-10T04:27:26;11.90;99.90
13572;DHT22;6857;53.484;10.216;2023-05-10T04:29:52;12.00;99.90
13572;DHT22;6857;53.484;10.216;2023-05-10T04:32:18;11.90;99.90
13572;DHT22;6857;53.484;10.216;2023-05-10T04:34:45;12.00;99.90
13572;DHT22;6857;53.484;10.216;2023-05-10T04:37:11;12.20;99.90
13572;DHT22;6857;53.484;10.216;2023-05-10T04:42:05;11.70;99.90
13572;DHT22;6857;53.484;10.216;2023-05-10T04:44:34;11.90;99.90
13572;DHT22;6857;53.484;10.216;2023-05-10T04:47:00;11.90;99.90
13572;DHT22;6857;53.484;10.216;2023-05-10T04:49:27;12.00;99.90
13572;DHT22;6857;53.484;10.216;2023-05-10T04:51:53;11.90;99.90
13572;DHT22;6857;53.484;10.216;2023-05-10T04:54:18;11.90;99.90
13572;DHT22;6857;53.484;10.216;2023-05-10T04:56:44;12.00;99.90
13572;DHT22;6857;53.484;10.216;2023-05-10T04:59:09;12.10;99.90
13572;DHT22;6857;53.484;10.216;2023-05-10T05:01:35;12.00;99.90
13572;DHT22;6857;53.484;10.216;2023-05-10T05:04:01;12.10;99.90
13572;DHT22;6857;53.484;10.216;2023-05-10T05:06:26;12.10;99.90
13572;DHT22;6857;53.484;10.216;2023-05-10T05:08:52;12.20;99.90
13572;DHT22;6857;53.484;10.216;2023-05-10T05:11:18;12.20;99.90
13572;DHT22;6857;53.484;10.216;2023-05-10T05:13:43;12.30;99.90
13572;DHT22;6857;53.484;10.216;2023-05-10T05:26:03;12.60;99.90
13572;DHT22;6857;53.484;10.216;2023-05-10T06:12:40;13.50;99.90
13572;DHT22;6857;53.484;10.216;2023-05-10T06:15:06;13.80;99.90
13572;DHT22;6857;53.484;10.216;2023-05-10T06:17:31;13.80;99.90
13572;DHT22;6857;53.484;10.216;2023-05-10T06:19:57;13.70;99.90
13572;DHT22;6857;53.484;10.216;2023-05-10T06:22:22;13.80;99.90
13572;DHT22;6857;53.484;10.216;2023-05-10T06:24:48;14.00;99.90
13572;DHT22;6857;53.484;10.216;2023-05-10T06:27:14;14.10;99.90
13572;DHT22;6857;53.484;10.216;2023-05-10T06:29:40;14.30;99.90
13572;DHT22;6857;53.484;10.216;2023-05-10T06:32:06;14.40;99.90
13572;DHT22;6857;53.484;10.216;2023-05-10T06:34:31;14.40;99.90
13572;DHT22;6857;53.484;10.216;2023-05-10T06:36:57;14.40;99.90
13572;DHT22;6857;53.484;10.216;2023-05-10T06:39:23;14.50;99.90
13572;DHT22;6857;53.484;10.216;2023-05-10T06:41:48;14.80;99.90
13572;DHT22;6857;53.484;10.216;2023-05-10T06:44:14;14.60;99.90
13572;DHT22;6857;53.484;10.216;2023-05-10T06:46:40;14.50;99.90
13572;DHT22;6857;53.484;10.216;2023-05-10T06:49:06;14.60;99.90
13572;DHT22;6857;53.484;10.216;2023-05-10T06:51:32;14.40;99.90
13572;DHT22;6857;53.484;10.216;2023-05-10T06:53:58;14.50;99.90
13572;DHT22;6857;53.484;10.216;2023-05-10T06:56:23;14.50;99.90
13572;DHT22;6857;53.484;10.216;2023-05-10T06:58:49;14.60;99.90
13572;DHT22;6857;53.484;10.216;2023-05-10T07:01:14;14.60;99.90
13572;DHT22;6857;53.484;10.216;2023-05-10T07:03:40;14.60;99.90
13572;DHT22;6857;53.484;10.216;2023-05-10T07:06:05;14.70;99.90
13572;DHT22;6857;53.484;10.216;2023-05-10T07:08:33;14.70;99.90
13572;DHT22;6857;53.484;10.216;2023-05-10T07:11:02;14.70;99.90
13572;DHT22;6857;53.484;10.216;2023-05-10T07:13:29;14.90;99.90
13572;DHT22;6857;53.484;10.216;2023-05-10T07:15:55;15.10;99.90
13572;DHT22;6857;53.484;10.216;2023-05-10T07:18:21;15.10;99.90
13572;DHT22;6857;53.484;10.216;2023-05-10T07:20:46;15.20;99.90
13572;DHT22;6857;53.484;10.216;2023-05-10T07:23:12;15.20;99.90
13572;DHT22;6857;53.484;10.216;2023-05-10T07:25:37;15.30;99.90
13572;DHT22;6857;53.484;10.216;2023-05-10T07:28:03;15.60;99.90
13572;DHT22;6857;53.484;10.216;2023-05-10T07:30:29;15.70;99.90
13572;DHT22;6857;53.484;10.216;2023-05-10T07:32:54;15.70;99.90
13572;DHT22;6857;53.484;10.216;2023-05-10T07:35:20;15.60;99.90
13572;DHT22;6857;53.484;10.216;2023-05-10T07:37:46;15.70;99.90
13572;DHT22;6857;53.484;10.216;2023-05-10T07:40:11;15.80;99.90
13572;DHT22;6857;53.484;10.216;2023-05-10T07:42:37;15.90;99.90
13572;DHT22;6857;53.484;10.216;2023-05-10T07:45:03;16.30;99.90
13572;DHT22;6857;53.484;10.216;2023-05-10T07:47:29;16.00;99.90
13572;DHT22;6857;53.484;10.216;2023-05-10T07:49:55;16.00;99.90
13572;DHT22;6857;53.484;10.216;2023-05-10T07:52:20;16.00;99.90
13572;DHT22;6857;53.484;10.216;2023-05-10T07:54:46;16.00;99.90
13572;DHT22;6857;53.484;10.216;2023-05-10T07:57:11;16.00;99.90
13572;DHT22;6857;53.484;10.216;2023-05-10T07:59:39;16.10;99.90
13572;DHT22;6857;53.484;10.216;2023-05-10T08:02:06;16.20;99.90
13572;DHT22;6857;53.484;10.216;2023-05-10T08:04:31;16.40;99.90
13572;DHT22;6857;53.484;10.216;2023-05-10T08:06:57;16.30;99.90
13572;DHT22;6857;53.484;10.216;2023-05-10T08:09:22;16.30;99.90
13572;DHT22;6857;53.484;10.216;2023-05-10T08:11:49;16.20;99.90
13572;DHT22;6857;53.484;10.216;2023-05-10T08:14:15;16.00;99.90
13572;DHT22;6857;53.484;10.216;2023-05-10T08:16:40;16.20;99.90
13572;DHT22;6857;53.484;10.216;2023-05-10T08:19:06;16.30;99.90
13572;DHT22;6857;53.484;10.216;2023-05-10T08:21:32;16.30;99.90
13572;DHT22;6857;53.484;10.216;2023-05-10T08:23:57;17.00;99.90
13572;DHT22;6857;53.484;10.216;2023-05-10T08:26:23;16.50;99.90
13572;DHT22;6857;53.484;10.216;2023-05-10T08:28:48;16.50;99.90
13572;DHT22;6857;53.484;10.216;2023-05-10T08:31:15;16.50;99.90
13572;DHT22;6857;53.484;10.216;2023-05-10T08:33:40;16.60;99.90
13572;DHT22;6857;53.484;10.216;2023-05-10T08:36:06;16.60;99.90
13572;DHT22;6857;53.484;10.216;2023-05-10T08:38:32;16.60;99.90
13572;DHT22;6857;53.484;10.216;2023-05-10T08:40:58;16.70;99.90
13572;DHT22;6857;53.484;10.216;2023-05-10T08:43:28;16.70;99.90
13572;DHT22;6857;53.484;10.216;2023-05-10T08:46:00;17.00;99.90
13572;DHT22;6857;53.484;10.216;2023-05-10T08:48:27;17.10;99.90
13572;DHT22;6857;53.484;10.216;2023-05-10T08:50:54;17.00;99.90
13572;DHT22;6857;53.484;10.216;2023-05-10T08:53:24;17.10;99.90
13572;DHT22;6857;53.484;10.216;2023-05-10T08:55:50;17.20;99.90
13572;DHT22;6857;53.484;10.216;2023-05-10T08:58:16;17.40;99.90
13572;DHT22;6857;53.484;10.216;2023-05-10T09:00:42;17.50;99.90
13572;DHT22;6857;53.484;10.216;2023-05-10T09:03:09;17.60;99.90
13572;DHT22;6857;53.484;10.216;2023-05-10T09:05:36;17.60;99.90
13572;DHT22;6857;53.484;10.216;2023-05-10T09:08:01;17.50;99.90
13572;DHT22;6857;53.484;10.216;2023-05-10T09:10:27;17.10;99.90
13572;DHT22;6857;53.484;10.216;2023-05-10T09:12:56;17.00;99.90
13572;DHT22;6857;53.484;10.216;2023-05-10T09:15:22;17.00;99.90
13572;DHT22;6857;53.484;10.216;2023-05-10T09:17:49;17.20;99.90
13572;DHT22;6857;53.484;10.216;2023-05-10T09:20:15;17.10;99.90
13572;DHT22;6857;53.484;10.216;2023-05-10T09:22:42;16.90;99.90
13572;DHT22;6857;53.484;10.216;2023-05-10T09:25:13;16.90;99.90
13572;DHT22;6857;53.484;10.216;2023-05-10T09:27:40;16.80;99.90
13572;DHT22;6857;53.484;10.216;2023-05-10T09:30:07;16.70;99.90
13572;DHT22;6857;53.484;10.216;2023-05-10T09:32:40;16.80;99.90
13572;DHT22;6857;53.484;10.216;2023-05-10T09:35:07;16.50;99.90
13572;DHT22;6857;53.484;10.216;2023-05-10T09:37:33;16.50;99.90
13572;DHT22;6857;53.484;10.216;2023-05-10T09:39:59;16.30;99.90
13572;DHT22;6857;53.484;10.216;2023-05-10T09:42:24;16.30;99.90
13572;DHT22;6857;53.484;10.216;2023-05-10T09:44:50;16.30;99.90
13572;DHT22;6857;53.484;10.216;2023-05-10T09:47:19;16.20;99.90
13572;DHT22;6857;53.484;10.216;2023-05-10T09:49:49;16.30;99.90
13572;DHT22;6857;53.484;10.216;2023-05-10T09:52:15;16.40;99.90
13572;DHT22;6857;53.484;10.216;2023-05-10T09:54:52;16.40;99.90
13572;DHT22;6857;53.484;10.216;2023-05-10T09:57:21;16.50;99.90
13572;DHT22;6857;53.484;10.216;2023-05-10T09:59:47;16.10;99.90
13572;DHT22;6857;53.484;10.216;2023-05-10T10:02:13;16.00;99.90
13572;DHT22;6857;53.484;10.216;2023-05-10T10:04:40;15.80;99.90
13572;DHT22;6857;53.484;10.216;2023-05-10T10:07:06;15.60;99.90
13572;DHT22;6857;53.484;10.216;2023-05-10T10:09:32;15.50;99.90
13572;DHT22;6857;53.484;10.216;2023-05-10T10:12:00;15.50;99.90
13572;DHT22;6857;53.484;10.216;2023-05-10T10:14:26;15.50;99.90
13572;DHT22;6857;53.484;10.216;2023-05-10T10:16:52;15.40;99.90
13572;DHT22;6857;53.484;10.216;2023-05-10T10:19:21;15.30;99.90
13572;DHT22;6857;53.484;10.216;2023-05-10T10:21:50;15.10;99.90
13572;DHT22;6857;53.484;10.216;2023-05-10T10:24:16;14.90;99.90
